Time;durP1;ratioP1;P1;durP2;ratioP2;P2;SDS_P1;SDS_P2;PMS_P1;PMS_P2;Temp;Humidity;BMP_temperature;BMP_pressure;BME280_temperature;BME280_humidity;BME280_pressure;Samples;Min_cycle;Max_cycle;Signal;HPM_P1;HPM_P2
2020/12/30 00:01:08;;;;;;;11.77;3.50;;;;;;;1.61;81.27;99818.75;4972726;28;20122;-56
2020/12/30 00:03:34;;;;;;;13.82;3.58;;;;;;;1.59;81.32;99806.53;4972300;28;20050;-55
2020/12/30 00:06:11;;;;;;;15.82;4.38;;;;;;;1.59;81.25;99803.81;4972273;28;20457;-57
2020/12/30 00:08:44;;;;;;;8.43;3.30;;;;;;;1.57;81.23;99809.53;4971809;28;20416;-56
2020/12/30 00:11:18;;;;;;;8.40;3.78;;;;;;;1.58;81.26;99807.63;4969977;28;20781;-54
2020/12/30 00:13:48;;;;;;;9.88;3.67;;;;;;;1.58;81.31;99810.38;4972010;28;20047;-57
2020/12/30 00:16:14;;;;;;;8.80;3.78;;;;;;;1.57;81.09;99809.53;4973080;28;20122;-55
2020/12/30 00:18:45;;;;;;;7.35;4.13;;;;;;;1.56;80.99;99805.19;4953433;28;20036;-57
2020/12/30 00:21:18;;;;;;;12.90;3.55;;;;;;;1.48;81.23;99803.22;4971643;28;20049;-57
2020/12/30 00:23:47;;;;;;;7.43;4.00;;;;;;;1.49;81.32;99809.47;4992403;28;20461;-56
2020/12/30 00:26:25;;;;;;;13.30;3.53;;;;;;;1.48;81.15;99816.88;4957365;28;20050;-56
2020/12/30 00:28:51;;;;;;;10.40;3.67;;;;;;;1.47;81.04;99807.06;4972122;28;20039;-53
2020/12/30 00:31:18;;;;;;;13.30;3.80;;;;;;;1.46;80.83;99805.44;4977878;28;20129;-55
2020/12/30 00:33:50;;;;;;;13.27;5.53;;;;;;;1.45;80.96;99813.94;4974501;28;20035;-55
2020/12/30 00:36:38;;;;;;;10.10;3.83;;;;;;;1.44;80.94;99809.59;4962708;28;20046;-52
2020/12/30 00:39:06;;;;;;;14.30;4.57;;;;;;;1.43;81.00;99800.59;4971795;28;20047;-54
2020/12/30 00:41:35;;;;;;;10.15;4.55;;;;;;;1.39;81.19;99796.06;4972798;28;20535;-53
2020/12/30 00:44:25;;;;;;;13.43;5.10;;;;;;;1.37;81.07;99796.41;4956302;28;20497;-56
2020/12/30 00:46:59;;;;;;;13.75;3.97;;;;;;;1.32;81.30;99788.34;4960515;28;20041;-56
2020/12/30 00:49:28;;;;;;;13.73;4.75;;;;;;;1.28;81.48;99792.78;4955138;28;20090;-55
2020/12/30 00:52:04;;;;;;;15.38;4.50;;;;;;;1.28;81.59;99795.50;4972695;28;20081;-57
2020/12/30 00:54:33;;;;;;;10.77;3.90;;;;;;;1.29;81.68;99799.03;4955715;28;20481;-54
2020/12/30 00:57:03;;;;;;;15.45;4.65;;;;;;;1.30;81.71;99790.53;4956457;28;20039;-55
2020/12/30 00:59:39;;;;;;;13.63;4.70;;;;;;;1.24;81.53;99789.84;4974388;28;20078;-52
2020/12/30 01:02:12;;;;;;;17.83;4.85;;;;;;;1.23;81.62;99787.44;4973886;28;20082;-57
2020/12/30 01:04:42;;;;;;;16.55;4.55;;;;;;;1.24;81.75;99789.84;4973223;28;20414;-55
2020/12/30 01:07:17;;;;;;;29.52;11.60;;;;;;;1.21;81.71;99784.22;4953475;29;20055;-56
2020/12/30 01:10:08;;;;;;;24.52;5.75;;;;;;;1.12;81.60;99784.13;4961263;28;20054;-54
2020/12/30 01:12:50;;;;;;;12.55;5.13;;;;;;;1.08;81.86;99793.22;4959197;28;20043;-53
2020/12/30 01:15:16;;;;;;;12.95;5.25;;;;;;;1.02;82.09;99795.25;4972814;28;20098;-55
2020/12/30 01:17:46;;;;;;;15.20;5.28;;;;;;;1.02;81.88;99797.16;4976376;28;20050;-55
2020/12/30 01:20:17;;;;;;;9.07;3.80;;;;;;;0.99;82.02;99789.59;4977653;28;20050;-56
2020/12/30 01:22:52;;;;;;;14.43;3.88;;;;;;;0.97;82.02;99789.91;4977310;28;20552;-51
2020/12/30 01:25:20;;;;;;;14.20;4.10;;;;;;;0.97;81.94;99786.38;4959646;28;20042;-53
2020/12/30 01:27:50;;;;;;;8.45;3.83;;;;;;;0.95;82.04;99786.69;4977492;28;20039;-55
2020/12/30 01:30:21;;;;;;;13.80;3.72;;;;;;;0.95;82.38;99794.88;4960412;28;20046;-53
2020/12/30 01:32:53;;;;;;;34.22;15.82;;;;;;;0.91;nan;99788.41;4956712;28;20040;-54
2020/12/30 01:35:28;;;;;;;17.30;5.65;;;;;;;0.91;82.40;99793.03;4976864;28;20039;-56
2020/12/30 01:37:56;;;;;;;8.35;3.70;;;;;;;0.88;82.30;99791.72;4956836;28;20043;-53
2020/12/30 01:40:24;;;;;;;8.75;3.53;;;;;;;0.86;82.59;99793.97;4974743;28;20042;-53
2020/12/30 01:42:53;;;;;;;12.23;4.60;;;;;;;0.81;82.62;99790.53;4977288;28;20042;-56
2020/12/30 01:45:19;;;;;;;12.45;4.32;;;;;;;0.81;82.57;99788.63;4977049;28;20074;-54
2020/12/30 01:47:52;;;;;;;8.73;3.75;;;;;;;0.82;82.47;99789.44;4975847;28;20073;-55
2020/12/30 01:50:33;;;;;;;10.02;3.05;;;;;;;0.82;82.32;99800.34;4959196;28;20117;-55
2020/12/30 01:53:09;;;;;;;16.60;4.10;;;;;;;0.78;82.64;99799.31;4957927;28;20039;-54
2020/12/30 01:55:43;;;;;;;16.88;5.18;;;;;;;0.74;82.65;99792.88;4986913;28;20135;-56
2020/12/30 01:58:31;;;;;;;12.82;4.45;;;;;;;0.72;82.82;99801.31;4962091;28;20154;-53
2020/12/30 02:01:11;;;;;;;14.15;4.05;;;;;;;0.68;82.42;99794.88;4980909;28;20125;-53
2020/12/30 02:03:44;;;;;;;13.18;4.97;;;;;;;0.65;82.52;99805.56;4996577;28;20057;-52
2020/12/30 02:06:14;;;;;;;13.32;3.97;;;;;;;0.61;83.01;99808.06;4975891;28;20094;-54
2020/12/30 02:08:41;;;;;;;7.72;3.50;;;;;;;0.58;82.86;99804.03;4972642;28;20086;-54
2020/12/30 02:11:10;;;;;;;10.95;3.88;;;;;;;0.57;83.00;99810.63;4975869;28;20102;-53
2020/12/30 02:14:12;;;;;;;7.30;3.35;;;;;;;0.56;83.01;99808.19;4949723;28;20094;-51
2020/12/30 02:16:58;;;;;;;11.95;5.78;;;;;;;0.53;83.39;99804.16;4976183;28;20125;-55
2020/12/30 02:19:35;;;;;;;10.38;4.43;;;;;;;0.57;83.37;99807.91;4976738;28;20038;-56
2020/12/30 02:22:13;;;;;;;9.20;3.97;;;;;;;0.55;83.33;99801.94;4960997;28;20042;-54
2020/12/30 02:24:39;;;;;;;8.20;3.88;;;;;;;0.55;83.35;99803.88;4979315;28;20074;-50
2020/12/30 02:27:20;;;;;;;10.38;3.72;;;;;;;0.55;83.66;99801.94;4975537;28;20054;-53
2020/12/30 02:29:55;;;;;;;13.30;4.38;;;;;;;0.55;83.37;99809.31;4975418;28;20074;-52
2020/12/30 02:32:22;;;;;;;14.15;4.85;;;;;;;0.52;83.53;99810.72;4980819;28;20081;-53
2020/12/30 02:34:53;;;;;;;15.35;3.90;;;;;;;0.55;83.49;99812.84;4977245;28;20059;-50
2020/12/30 02:37:22;;;;;;;9.55;4.65;;;;;;;0.53;83.61;99815.03;4976163;28;20070;-53
2020/12/30 02:39:49;;;;;;;10.77;3.60;;;;;;;0.53;83.58;99815.03;4958200;28;20046;-51
2020/12/30 02:42:15;;;;;;;8.15;3.38;;;;;;;0.55;83.72;99817.47;4975417;28;20043;-51
2020/12/30 02:44:41;;;;;;;12.40;3.67;;;;;;;0.54;83.69;99822.09;4976824;28;20078;-52
2020/12/30 02:47:08;;;;;;;11.07;3.83;;;;;;;0.54;83.62;99818.56;4976144;28;20118;-52
2020/12/30 02:49:34;;;;;;;9.23;3.15;;;;;;;0.53;83.84;99814.25;4975787;28;20046;-53
2020/12/30 02:52:01;;;;;;;9.65;3.67;;;;;;;0.55;83.80;99810.13;4975847;28;20093;-52
2020/12/30 02:54:27;;;;;;;7.63;3.35;;;;;;;0.53;83.73;99812.31;4974909;28;20430;-53
2020/12/30 02:56:56;;;;;;;12.40;3.75;;;;;;;0.55;83.90;99812.84;4957150;28;20494;-49
2020/12/30 02:59:23;;;;;;;13.27;3.50;;;;;;;0.57;83.57;99818.78;4976082;28;20105;-51
2020/12/30 03:01:49;;;;;;;12.38;4.53;;;;;;;0.57;83.82;99807.91;4976341;28;20404;-50
2020/12/30 03:04:15;;;;;;;14.88;5.50;;;;;;;0.58;83.79;99804.03;4975413;28;20150;-50
2020/12/30 03:06:42;;;;;;;11.85;3.92;;;;;;;0.57;83.59;99799.72;4975978;28;20046;-51
2020/12/30 03:09:08;;;;;;;12.18;4.20;;;;;;;0.57;83.63;99799.72;4975499;28;20051;-49
2020/12/30 03:11:34;;;;;;;11.95;3.22;;;;;;;0.55;83.75;99801.13;4975336;28;20389;-53
2020/12/30 03:14:01;;;;;;;11.15;3.53;;;;;;;0.53;83.95;99793.25;4975494;28;20460;-51
2020/12/30 03:16:28;;;;;;;10.15;3.53;;;;;;;0.53;84.12;99792.47;4975414;28;20046;-52
2020/12/30 03:18:54;;;;;;;9.68;3.65;;;;;;;0.53;83.82;99793.25;4972742;28;20490;-51
2020/12/30 03:21:20;;;;;;;9.05;3.83;;;;;;;0.52;83.69;99790.84;4974669;28;20109;-52
2020/12/30 03:23:46;;;;;;;10.70;4.05;;;;;;;0.49;83.78;99792.25;4974793;28;20105;-52
2020/12/30 03:26:14;;;;;;;11.52;4.45;;;;;;;0.48;83.78;99779.75;4974847;28;20069;-52
2020/12/30 03:28:40;;;;;;;8.90;3.53;;;;;;;0.46;83.69;99792.03;4974419;28;20035;-51
2020/12/30 03:31:06;;;;;;;10.32;4.10;;;;;;;0.43;83.83;99789.91;4975131;28;20035;-52
2020/12/30 03:33:33;;;;;;;18.48;6.13;;;;;;;0.43;84.04;99790.72;4975128;28;20499;-52
2020/12/30 03:36:03;;;;;;;9.27;4.43;;;;;;;0.43;83.76;99789.91;4975733;28;20038;-54
2020/12/30 03:38:29;;;;;;;7.80;3.25;;;;;;;0.42;83.88;99791.88;4974344;28;20062;-50
2020/12/30 03:40:56;;;;;;;9.18;4.07;;;;;;;0.40;84.04;99782.34;4973092;28;20043;-55
2020/12/30 03:43:22;;;;;;;8.98;3.08;;;;;;;0.40;83.94;99785.88;4975017;28;20038;-53
2020/12/30 03:45:49;;;;;;;12.65;4.35;;;;;;;0.38;84.03;99774.50;4974487;28;20097;-50
2020/12/30 03:48:15;;;;;;;11.95;3.92;;;;;;;0.39;84.22;99778.84;4960960;28;20043;-51
2020/12/30 03:50:41;;;;;;;8.38;3.72;;;;;;;0.40;83.92;99772.28;4975136;28;20043;-54
2020/12/30 03:53:07;;;;;;;11.13;3.45;;;;;;;0.40;83.96;99783.16;4974010;28;20046;-53
2020/12/30 03:55:34;;;;;;;11.70;3.70;;;;;;;0.41;83.86;99779.34;4974899;28;20125;-49
2020/12/30 03:58:00;;;;;;;12.25;4.20;;;;;;;0.40;84.29;99775.00;4975216;28;20105;-52
2020/12/30 04:00:27;;;;;;;13.38;3.38;;;;;;;0.41;84.19;99773.09;4975116;28;20055;-52
2020/12/30 04:02:54;;;;;;;9.45;3.80;;;;;;;0.43;84.22;99782.56;4974680;28;20039;-49
2020/12/30 04:05:22;;;;;;;10.85;3.92;;;;;;;0.46;84.12;99773.78;4974774;28;20409;-52
2020/12/30 04:07:49;;;;;;;12.38;3.92;;;;;;;0.46;84.20;99771.06;4974303;28;20089;-51
2020/12/30 04:10:16;;;;;;;11.05;3.45;;;;;;;0.47;84.21;99769.16;4974043;28;20441;-53
2020/12/30 04:12:42;;;;;;;7.28;3.10;;;;;;;0.48;84.28;99774.28;4974901;28;20051;-51
2020/12/30 04:15:08;;;;;;;12.18;3.55;;;;;;;0.50;84.33;99768.56;4974814;28;20122;-50
2020/12/30 04:17:35;;;;;;;9.95;3.47;;;;;;;0.50;84.40;99772.06;4974704;28;20043;-54
2020/12/30 04:20:02;;;;;;;13.25;3.60;;;;;;;0.52;84.43;99772.59;4973901;28;20129;-50
2020/12/30 04:22:29;;;;;;;7.90;3.53;;;;;;;0.56;84.27;99770.88;4957502;28;20039;-53
2020/12/30 04:24:55;;;;;;;14.10;4.47;;;;;;;0.58;84.32;99767.84;4974367;28;20101;-50
2020/12/30 04:27:22;;;;;;;11.77;3.88;;;;;;;0.58;84.32;99767.84;4973767;28;20053;-55
2020/12/30 04:29:49;;;;;;;11.95;3.30;;;;;;;0.59;84.18;99764.81;4953727;28;20051;-51
2020/12/30 04:32:15;;;;;;;12.48;3.28;;;;;;;0.60;83.94;99765.63;4973576;28;20358;-52
2020/12/30 04:34:44;;;;;;;12.75;3.72;;;;;;;0.63;84.17;99769.66;4957589;28;20102;-49
2020/12/30 04:37:13;;;;;;;10.43;3.00;;;;;;;0.63;84.19;99766.94;4973015;28;20504;-54
2020/12/30 04:39:40;;;;;;;12.10;2.75;;;;;;;0.64;84.34;99761.19;4973077;28;20118;-54
2020/12/30 04:42:08;;;;;;;7.97;3.08;;;;;;;0.66;84.11;99758.97;4974649;28;20101;-52
2020/12/30 04:44:40;;;;;;;12.38;4.50;;;;;;;0.68;84.04;99758.66;4957255;28;20042;-52
2020/12/30 04:47:08;;;;;;;8.85;4.72;;;;;;;0.70;84.03;99757.25;4973516;28;20035;-54
2020/12/30 04:49:37;;;;;;;9.63;3.05;;;;;;;0.70;83.70;99759.16;4968580;28;20050;-51
2020/12/30 04:52:04;;;;;;;11.25;3.30;;;;;;;0.71;84.13;99758.06;4973835;28;20381;-52
2020/12/30 04:54:34;;;;;;;11.10;3.58;;;;;;;0.72;83.93;99748.75;4973937;28;20746;-49
2020/12/30 04:57:02;;;;;;;7.97;2.60;;;;;;;0.73;83.92;99747.66;4973966;28;20461;-53
2020/12/30 04:59:33;;;;;;;13.43;3.03;;;;;;;0.72;84.02;99752.28;4973711;28;20062;-53
2020/12/30 05:02:07;;;;;;;15.48;3.25;;;;;;;0.73;84.14;99747.66;4973716;28;20085;-53
2020/12/30 05:04:35;;;;;;;9.63;3.55;;;;;;;0.72;84.07;99759.66;4973143;28;20142;-54
2020/12/30 05:07:06;;;;;;;12.68;2.33;;;;;;;0.73;83.97;99764.00;4973016;28;20100;-51
2020/12/30 05:09:34;;;;;;;11.70;3.85;;;;;;;0.73;84.19;99758.56;4948906;28;20173;-50
2020/12/30 05:12:02;;;;;;;7.18;3.17;;;;;;;0.73;84.16;99761.28;4956355;28;20138;-55
2020/12/30 05:14:28;;;;;;;7.60;2.60;;;;;;;0.73;84.09;99750.38;4973862;28;20418;-55
2020/12/30 05:16:54;;;;;;;12.48;2.88;;;;;;;0.73;83.62;99753.09;4974203;28;20051;-50
2020/12/30 05:19:20;;;;;;;11.90;2.67;;;;;;;0.74;83.95;99743.84;4973063;28;20075;-52
2020/12/30 05:21:47;;;;;;;10.00;2.90;;;;;;;0.75;84.18;99742.72;4973581;28;20047;-53
2020/12/30 05:24:13;;;;;;;9.85;2.60;;;;;;;0.76;83.96;99747.88;4973632;28;20094;-54
2020/12/30 05:26:43;;;;;;;15.10;3.65;;;;;;;0.79;84.00;99743.72;4970970;28;20985;-51
2020/12/30 05:29:09;;;;;;;9.60;3.03;;;;;;;0.79;83.82;99752.72;4973253;28;20436;-50
2020/12/30 05:31:36;;;;;;;11.60;3.40;;;;;;;0.80;84.10;99745.31;4977515;28;20059;-53
2020/12/30 05:34:03;;;;;;;6.53;2.35;;;;;;;0.82;83.73;99741.19;4987369;28;20045;-53
2020/12/30 05:36:30;;;;;;;5.97;2.42;;;;;;;0.85;83.95;99745.25;4973035;28;20054;-52
2020/12/30 05:38:56;;;;;;;8.35;2.58;;;;;;;0.85;83.69;99745.25;4972323;28;20047;-51
2020/12/30 05:41:22;;;;;;;8.13;2.97;;;;;;;0.84;83.88;99740.88;4955667;28;20105;-56
2020/12/30 05:43:49;;;;;;;7.55;2.55;;;;;;;0.85;83.71;99743.28;4973875;28;20437;-51
2020/12/30 05:46:28;;;;;;;9.88;2.67;;;;;;;0.86;84.16;99763.19;4973829;28;20050;-52
2020/12/30 05:48:55;;;;;;;7.50;2.17;;;;;;;0.89;84.06;99748.94;4969457;28;20457;-53
2020/12/30 05:51:30;;;;;;;5.65;1.90;;;;;;;0.90;83.96;99731.50;4972443;28;20043;-54
2020/12/30 05:54:13;;;;;;;13.40;2.28;;;;;;;0.90;83.98;99739.69;4973429;28;20039;-52
2020/12/30 05:56:42;;;;;;;10.23;2.33;;;;;;;0.93;83.94;99745.28;4972956;28;20042;-50
2020/12/30 05:59:08;;;;;;;9.50;1.90;;;;;;;0.95;83.98;99734.09;4973466;28;20614;-49
2020/12/30 06:01:38;;;;;;;8.70;2.03;;;;;;;0.95;84.08;99750.47;4973334;28;20038;-50
2020/12/30 06:04:16;;;;;;;4.80;2.65;;;;;;;0.96;83.63;99741.97;4956795;28;20141;-53
2020/12/30 06:06:46;;;;;;;8.18;2.22;;;;;;;0.99;83.92;99740.53;4959709;28;20093;-50
2020/12/30 06:09:18;;;;;;;8.80;1.73;;;;;;;0.98;84.15;99744.41;4975500;28;20058;-51
2020/12/30 06:11:53;;;;;;;8.27;2.88;;;;;;;0.99;83.71;99743.28;4956689;29;20363;-53
2020/12/30 06:14:21;;;;;;;11.98;2.38;;;;;;;1.01;84.15;99738.31;4975947;28;20074;-52
2020/12/30 06:16:48;;;;;;;11.57;2.25;;;;;;;1.01;83.66;99735.59;4977702;28;20048;-54
2020/12/30 06:19:14;;;;;;;12.80;2.55;;;;;;;1.01;84.00;99732.88;4959565;28;20150;-52
2020/12/30 06:21:47;;;;;;;8.38;2.10;;;;;;;1.00;83.89;99726.63;4977652;28;20118;-49
2020/12/30 06:24:14;;;;;;;;;;;;;;;1.01;83.83;99735.59;4976347;28;20038;-54
2020/12/30 06:26:42;;;;;;;7.88;2.28;;;;;;;0.99;84.09;99733.19;4976579;28;19922;-50
2020/12/30 06:29:16;;;;;;;8.95;1.80;;;;;;;1.01;83.83;99732.88;4976210;28;20124;-53
2020/12/30 06:31:47;;;;;;;7.88;1.77;;;;;;;1.00;84.00;99745.72;4976547;28;20105;-52
2020/12/30 06:34:16;;;;;;;10.30;2.00;;;;;;;1.02;84.02;99731.75;4976424;28;20071;-50
2020/12/30 06:36:44;;;;;;;11.88;2.22;;;;;;;1.04;84.03;99737.72;4959705;28;20495;-54
2020/12/30 06:39:18;;;;;;;10.18;2.35;;;;;;;1.05;83.83;99739.31;4976302;28;20067;-53
2020/12/30 06:41:54;;;;;;;10.20;3.83;;;;;;;1.05;83.88;99734.69;4957168;29;20537;-53
2020/12/30 06:44:43;;;;;;;6.90;1.70;;;;;;;1.04;84.02;99735.78;4958902;28;20138;-53
2020/12/30 06:47:58;;;;;;;7.10;3.25;;;;;;;1.06;84.08;99732.78;4974681;28;20042;-54
2020/12/30 06:50:31;;;;;;;12.43;2.42;;;;;;;1.06;83.83;99741.72;4975532;28;20055;-52
2020/12/30 06:53:26;;;;;;;4.00;1.38;;;;;;;1.05;83.96;99740.13;4976052;28;20074;-50
2020/12/30 06:55:57;;;;;;;5.82;1.92;;;;;;;1.07;83.95;99728.91;4968140;28;20129;-52
2020/12/30 06:58:44;;;;;;;19.80;2.42;;;;;;;1.05;83.80;99736.59;4970698;28;20051;-50
2020/12/30 07:01:16;;;;;;;5.32;1.73;;;;;;;1.08;83.91;99733.28;4973335;28;20493;-53
2020/12/30 07:03:43;;;;;;;6.97;1.83;;;;;;;1.07;83.87;99731.66;4975226;28;20050;-54
2020/12/30 07:06:30;;;;;;;6.60;1.52;;;;;;;1.06;84.20;99741.72;4976012;28;20051;-52
2020/12/30 07:08:58;;;;;;;9.30;2.42;;;;;;;1.06;84.07;99740.94;4942886;28;20051;-54
2020/12/30 07:11:53;;;;;;;5.22;1.85;;;;;;;1.06;84.18;99746.41;4954928;28;20073;-54
2020/12/30 07:14:22;;;;;;;9.02;1.70;;;;;;;1.10;83.86;99758.28;4975538;28;20425;-53
2020/12/30 07:16:59;;;;;;;3.83;1.88;;;;;;;1.06;83.89;99758.09;4957883;28;20043;-55
2020/12/30 07:19:36;;;;;;;11.93;2.65;;;;;;;1.08;84.02;99749.63;4954877;28;20050;-53
2020/12/30 07:22:15;;;;;;;10.50;2.45;;;;;;;1.08;83.91;99755.06;4975408;28;20042;-55
2020/12/30 07:24:45;;;;;;;8.00;2.00;;;;;;;1.07;83.96;99748.00;4961270;28;20038;-53
2020/12/30 07:27:13;;;;;;;7.18;2.85;;;;;;;1.10;83.79;99752.84;4975596;28;20073;-54
2020/12/30 07:29:40;;;;;;;9.25;2.33;;;;;;;1.09;83.78;99748.50;4975764;28;20077;-53
2020/12/30 07:32:08;;;;;;;8.32;3.40;;;;;;;1.08;83.97;99757.81;4976145;28;20101;-55
2020/12/30 07:34:41;;;;;;;8.32;2.58;;;;;;;1.09;84.01;99753.94;4975194;28;20130;-53
2020/12/30 07:37:08;;;;;;;7.95;2.47;;;;;;;1.09;84.12;99762.13;4975307;28;20042;-52
2020/12/30 07:39:41;;;;;;;9.13;2.65;;;;;;;1.10;83.76;99758.28;4966846;28;20050;-54
2020/12/30 07:42:10;;;;;;;8.48;1.88;;;;;;;1.11;83.81;99765.38;4974452;28;20098;-53
2020/12/30 07:44:49;;;;;;;2.58;1.63;;;;;;;1.09;83.95;99762.94;4975170;28;20034;-52
2020/12/30 07:47:16;;;;;;;12.95;2.50;;;;;;;1.11;83.86;99770.81;4958178;28;20046;-54
2020/12/30 07:49:43;;;;;;;6.15;2.25;;;;;;;1.11;83.88;99770.81;4975046;28;20101;-54
2020/12/30 07:52:18;;;;;;;9.70;2.38;;;;;;;1.13;83.78;99784.94;4974185;28;20473;-53
2020/12/30 07:54:45;;;;;;;5.63;2.17;;;;;;;1.11;83.81;99779.00;4974240;28;20072;-53
2020/12/30 07:57:13;;;;;;;4.05;1.58;;;;;;;1.10;83.98;99783.63;4973355;28;20158;-53
2020/12/30 07:59:41;;;;;;;7.95;2.10;;;;;;;1.11;84.13;99773.53;4972813;28;20083;-51
2020/12/30 08:02:11;;;;;;;7.15;2.05;;;;;;;1.09;83.96;99789.38;4970728;28;20374;-50
2020/12/30 08:05:01;;;;;;;8.63;2.60;;;;;;;1.09;83.89;99781.19;4974036;28;20199;-54
2020/12/30 08:07:52;;;;;;;3.60;1.60;;;;;;;1.10;84.19;99785.56;4967658;28;20090;-50
2020/12/30 08:10:22;;;;;;;9.15;2.28;;;;;;;1.08;84.15;99782.31;4972833;28;20039;-51
2020/12/30 08:12:49;;;;;;;10.95;2.03;;;;;;;1.09;84.14;99783.94;4974085;28;20082;-52
2020/12/30 08:15:17;;;;;;;7.63;2.53;;;;;;;1.09;84.12;99790.19;4974368;28;20043;-50
2020/12/30 08:17:46;;;;;;;8.43;2.05;;;;;;;1.08;83.79;99788.59;4952139;28;20102;-53
2020/12/30 08:20:14;;;;;;;8.55;2.38;;;;;;;1.07;83.94;99792.41;4963388;28;20440;-52
2020/12/30 08:22:43;;;;;;;8.20;1.85;;;;;;;1.09;84.09;99794.81;4974152;28;20126;-49
2020/12/30 08:25:09;;;;;;;10.07;2.28;;;;;;;1.10;84.10;99791.00;4974047;28;20392;-52
2020/12/30 08:27:39;;;;;;;9.75;1.95;;;;;;;1.12;84.14;99797.75;4974001;28;20469;-54
2020/12/30 08:30:06;;;;;;;10.48;2.63;;;;;;;1.13;83.85;99806.75;4974111;28;20508;-55
2020/12/30 08:32:58;;;;;;;12.05;3.50;;;;;;;1.13;83.99;99809.47;4979633;28;20076;-51
2020/12/30 08:35:58;;;;;;;6.00;1.80;;;;;;;1.11;84.07;99803.53;4973349;28;20392;-54
2020/12/30 08:38:39;;;;;;;8.38;2.22;;;;;;;1.09;84.03;99811.19;4968324;28;20089;-53
2020/12/30 08:41:10;;;;;;;2.53;1.50;;;;;;;1.09;83.97;99816.63;4973229;28;20548;-51
2020/12/30 08:43:43;;;;;;;7.28;2.00;;;;;;;1.09;84.13;99808.44;4974089;28;20081;-52
2020/12/30 08:46:35;;;;;;;6.93;1.70;;;;;;;1.06;84.53;99811.81;4973774;28;20035;-51
2020/12/30 08:49:09;;;;;;;8.35;2.40;;;;;;;1.09;84.12;99806.53;4974030;28;20039;-52
2020/12/30 08:51:35;;;;;;;8.55;2.25;;;;;;;1.10;83.86;99807.34;4957166;28;20050;-51
2020/12/30 08:54:15;;;;;;;14.77;2.60;;;;;;;1.10;83.94;99812.81;4974010;28;20498;-54
2020/12/30 08:57:02;;;;;;;8.75;1.98;;;;;;;1.11;84.15;99806.25;4973717;28;20128;-51
2020/12/30 08:59:48;;;;;;;4.60;1.60;;;;;;;1.11;84.29;99804.31;4974608;28;22276;-50
2020/12/30 09:02:26;;;;;;;14.13;3.85;;;;;;;1.12;84.17;99805.13;4957778;28;20082;-50
2020/12/30 09:04:54;;;;;;;6.13;1.95;;;;;;;1.13;84.38;99814.91;4972940;28;20062;-51
2020/12/30 09:07:27;;;;;;;9.73;1.65;;;;;;;1.12;84.07;99810.56;4953659;28;20047;-50
2020/12/30 09:10:08;;;;;;;8.80;1.42;;;;;;;1.13;84.25;99817.66;4973938;28;20444;-52
2020/12/30 09:12:35;;;;;;;7.40;2.20;;;;;;;1.14;84.54;99816.53;4973294;28;20081;-51
2020/12/30 09:15:02;;;;;;;13.00;2.45;;;;;;;1.14;84.23;99822.78;4965533;28;20050;-51
2020/12/30 09:17:28;;;;;;;5.25;1.85;;;;;;;1.15;84.20;99812.69;4993787;28;20046;-49
2020/12/30 09:20:16;;;;;;;6.63;2.00;;;;;;;1.17;84.13;99818.63;4976157;28;20051;-52
2020/12/30 09:22:47;;;;;;;3.92;1.63;;;;;;;1.18;84.36;99828.44;4974577;28;20094;-55
2020/12/30 09:25:36;;;;;;;6.53;2.08;;;;;;;1.17;84.20;99824.09;4974499;28;20138;-52
2020/12/30 09:28:25;;;;;;;9.48;2.05;;;;;;;1.18;84.41;99826.53;4973267;28;20212;-51
2020/12/30 09:31:16;;;;;;;6.10;1.70;;;;;;;1.21;84.51;99825.09;4972465;28;20051;-53
2020/12/30 09:34:16;;;;;;;6.75;2.03;;;;;;;1.23;83.97;99817.41;4976550;28;20050;-50
2020/12/30 09:36:54;;;;;;;9.93;4.13;;;;;;;1.22;84.18;99827.50;4956078;28;20065;-51
2020/12/30 09:39:21;;;;;;;7.30;2.13;;;;;;;1.23;84.40;99833.78;4977191;28;20481;-50
2020/12/30 09:41:48;;;;;;;5.47;2.22;;;;;;;1.24;84.28;99829.94;4977224;28;20093;-52
2020/12/30 09:44:17;;;;;;;5.55;2.53;;;;;;;1.27;84.27;99828.53;4976300;28;20043;-49
2020/12/30 09:46:49;;;;;;;10.05;2.97;;;;;;;1.29;84.49;99831.75;4958185;28;20153;-52
2020/12/30 09:49:17;;;;;;;11.57;2.28;;;;;;;1.29;84.29;99829.84;4958774;28;20038;-54
2020/12/30 09:51:44;;;;;;;8.88;3.47;;;;;;;1.31;84.06;99835.78;4970758;28;20070;-52
2020/12/30 09:54:11;;;;;;;6.95;2.25;;;;;;;1.32;84.54;99837.41;4957355;28;20146;-50
2020/12/30 09:56:41;;;;;;;12.07;3.08;;;;;;;1.33;84.52;99833.56;4976099;28;20073;-55
2020/12/30 09:59:07;;;;;;;5.82;2.17;;;;;;;1.34;84.16;99832.44;4974848;28;20050;-50
2020/12/30 10:01:33;;;;;;;4.53;2.00;;;;;;;1.36;84.55;99826.69;4974924;28;20038;-51
2020/12/30 10:04:00;;;;;;;5.90;2.35;;;;;;;1.37;84.07;99829.13;4975938;28;20468;-50
2020/12/30 10:06:26;;;;;;;6.72;3.08;;;;;;;1.38;84.07;99829.94;4973656;28;20137;-54
2020/12/30 10:08:53;;;;;;;5.40;2.83;;;;;;;1.37;84.22;99833.75;4974494;28;21490;-54
2020/12/30 10:11:21;;;;;;;9.23;3.00;;;;;;;1.38;84.18;99846.28;4975410;28;20393;-56
2020/12/30 10:13:47;;;;;;;5.70;2.55;;;;;;;1.40;84.52;99839.41;4975505;28;20114;-59
2020/12/30 10:16:14;;;;;;;8.73;2.75;;;;;;;1.42;84.44;99848.09;4974365;28;20049;-55
2020/12/30 10:18:44;;;;;;;9.73;2.47;;;;;;;1.45;84.42;99847.47;4962138;28;20121;-54
2020/12/30 10:21:13;;;;;;;6.68;2.72;;;;;;;1.47;84.19;99849.88;4974029;28;20043;-55
2020/12/30 10:23:40;;;;;;;5.55;2.85;;;;;;;1.51;84.21;99846.22;4956917;28;20123;-54
2020/12/30 10:26:07;;;;;;;7.05;2.58;;;;;;;1.54;84.11;99851.06;4974826;28;20101;-57
2020/12/30 10:28:39;;;;;;;8.10;2.40;;;;;;;1.57;84.18;99844.19;4974260;28;20046;-56
2020/12/30 10:31:05;;;;;;;26.98;3.92;;;;;;;1.56;84.17;99843.38;4975828;28;20043;-55
2020/12/30 10:33:32;;;;;;;5.70;2.45;;;;;;;1.54;84.51;99845.63;4956861;28;20391;-54
2020/12/30 10:35:58;;;;;;;7.20;2.83;;;;;;;1.54;84.06;99834.72;4990349;28;20053;-56
2020/12/30 10:38:24;;;;;;;12.90;3.90;;;;;;;1.56;84.41;99832.47;4990251;28;20116;-55
2020/12/30 10:40:50;;;;;;;7.82;3.22;;;;;;;1.60;84.12;99830.75;4955778;29;20047;-57
2020/12/30 10:43:17;;;;;;;9.32;3.35;;;;;;;1.61;84.27;99840.56;4944601;28;20047;-57
2020/12/30 10:45:44;;;;;;;8.73;2.65;;;;;;;1.64;84.47;99837.19;4957118;28;20042;-54
2020/12/30 10:48:10;;;;;;;8.25;2.47;;;;;;;1.64;84.58;99834.47;4974792;28;20081;-56
2020/12/30 10:50:37;;;;;;;10.05;3.00;;;;;;;1.67;84.20;99844.78;4973246;28;20035;-57
2020/12/30 10:53:09;;;;;;;6.80;3.00;;;;;;;1.70;84.15;99838.69;4972230;28;20116;-55
2020/12/30 10:55:44;;;;;;;6.60;2.40;;;;;;;1.73;84.15;99846.28;4972326;28;20166;-55
2020/12/30 10:58:11;;;;;;;12.15;3.97;;;;;;;1.74;84.12;99844.34;4973257;28;20440;-55
2020/12/30 11:00:38;;;;;;;10.65;2.83;;;;;;;1.77;84.51;99835.56;4975186;28;20641;-56
2020/12/30 11:03:04;;;;;;;9.43;4.45;;;;;;;1.80;84.47;99827.53;4973759;28;21862;-57
2020/12/30 11:05:31;;;;;;;10.35;3.78;;;;;;;1.81;84.18;99829.16;4971876;28;20053;-55
2020/12/30 11:07:57;;;;;;;12.07;4.80;;;;;;;1.80;84.23;99835.72;4957767;28;20133;-56
2020/12/30 11:10:25;;;;;;;9.18;3.65;;;;;;;1.82;83.96;99830.78;4974009;28;20475;-55
2020/12/30 11:12:51;;;;;;;6.15;3.25;;;;;;;1.84;84.17;99839.47;4973549;28;20137;-55
2020/12/30 11:15:18;;;;;;;9.18;3.53;;;;;;;1.88;84.25;99834.16;4974067;28;20055;-57
2020/12/30 11:17:45;;;;;;;6.15;2.63;;;;;;;1.88;84.17;99830.66;4974044;28;20046;-57
2020/12/30 11:20:11;;;;;;;10.23;3.03;;;;;;;1.89;84.36;99835.00;4971346;28;20101;-56
2020/12/30 11:22:39;;;;;;;8.13;2.75;;;;;;;1.87;84.35;99842.69;4956483;28;20137;-50
2020/12/30 11:25:07;;;;;;;14.90;5.57;;;;;;;1.87;84.46;99837.22;4976224;28;20038;-55
2020/12/30 11:27:33;;;;;;;8.60;2.60;;;;;;;1.91;84.21;99835.50;4992873;28;20491;-53
2020/12/30 11:30:00;;;;;;;9.43;3.83;;;;;;;1.91;84.16;99830.84;4976205;28;20043;-53
2020/12/30 11:32:26;;;;;;;10.85;3.50;;;;;;;1.96;84.51;99836.16;4976146;28;20086;-51
2020/12/30 11:34:53;;;;;;;13.73;4.05;;;;;;;1.94;84.22;99835.66;4978485;28;20119;-55
2020/12/30 11:37:22;;;;;;;7.35;3.20;;;;;;;2.00;84.10;99825.44;4982076;28;20409;-55
2020/12/30 11:39:48;;;;;;;12.10;3.30;;;;;;;1.99;84.07;99824.63;4973774;28;20085;-55
2020/12/30 11:42:15;;;;;;;10.10;3.60;;;;;;;2.00;84.29;99819.97;4973196;28;20092;-55
2020/12/30 11:44:41;;;;;;;11.48;3.28;;;;;;;2.02;83.93;99825.94;4973202;28;20593;-56
2020/12/30 11:47:08;;;;;;;8.77;3.55;;;;;;;2.03;84.20;99824.81;4973749;28;20070;-57
2020/12/30 11:49:34;;;;;;;9.43;4.80;;;;;;;2.08;84.48;99825.50;4973448;28;20111;-57
2020/12/30 11:52:00;;;;;;;7.82;3.08;;;;;;;2.12;84.37;99823.75;4972025;28;20130;-58
2020/12/30 11:54:26;;;;;;;8.90;3.45;;;;;;;2.12;84.03;99818.28;4973111;28;20176;-56
2020/12/30 11:56:53;;;;;;;12.02;4.32;;;;;;;2.16;83.94;99824.75;4953024;28;20090;-55